Time;durP1;ratioP1;P1;durP2;ratioP2;P2;SDS_P1;SDS_P2;PMS_P1;PMS_P2;Temp;Humidity;BMP_temperature;BMP_pressure;BME280_temperature;BME280_humidity;BME280_pressure;Samples;Min_cycle;Max_cycle;Signal;HPM_P1;HPM_P2
2022/04/05 00:01:25;;;;;;;1.30;1.20;;;17.90;36.80;;;;;;5063137;28;20222;-58
2022/04/05 00:03:51;;;;;;;1.67;1.30;;;17.90;37.60;;;;;;5057888;28;20210;-58
2022/04/05 00:06:16;;;;;;;1.20;1.10;;;17.90;36.80;;;;;;5059682;28;20250;-58
2022/04/05 00:08:42;;;;;;;1.10;1.00;;;17.90;36.90;;;;;;5064107;28;20843;-58
2022/04/05 00:11:07;;;;;;;1.43;1.10;;;17.90;36.90;;;;;;5060853;28;20226;-59
2022/04/05 00:13:33;;;;;;;1.30;1.20;;;17.90;37.00;;;;;;5063796;28;20222;-59
2022/04/05 00:15:59;;;;;;;1.23;1.13;;;17.90;37.00;;;;;;5063491;28;20229;-58
2022/04/05 00:18:25;;;;;;;1.30;1.20;;;17.90;37.00;;;;;;5056165;28;20218;-58
2022/04/05 00:20:51;;;;;;;1.30;1.20;;;17.90;37.10;;;;;;5061758;28;20705;-57
2022/04/05 00:23:16;;;;;;;1.10;1.00;;;17.90;37.00;;;;;;5061272;28;20466;-58
2022/04/05 00:25:42;;;;;;;1.20;1.10;;;17.90;37.00;;;;;;5056364;28;20257;-58
2022/04/05 00:28:08;;;;;;;1.27;1.17;;;17.90;37.00;;;;;;5062937;28;20229;-58
2022/04/05 00:30:34;;;;;;;1.40;1.30;;;17.90;37.00;;;;;;5061889;28;20755;-57
2022/04/05 00:32:59;;;;;;;1.13;1.03;;;17.90;37.00;;;;;;5063684;28;20651;-58
2022/04/05 00:35:25;;;;;;;1.33;1.07;;;17.90;37.00;;;;;;5061682;28;20317;-58
2022/04/05 00:37:50;;;;;;;1.20;1.10;;;17.90;37.00;;;;;;5063977;28;20279;-57
2022/04/05 00:40:16;;;;;;;0.90;0.90;;;17.90;37.00;;;;;;5055969;28;20306;-57
2022/04/05 00:42:42;;;;;;;2.13;2.03;;;17.90;37.00;;;;;;5062166;28;20234;-58
2022/04/05 00:45:16;;;;;;;1.30;1.20;;;17.90;37.00;;;;;;5061346;28;20457;-58
2022/04/05 00:47:45;;;;;;;1.20;1.10;;;17.90;37.10;;;;;;5053656;28;20260;-58
2022/04/05 00:50:12;;;;;;;1.30;1.17;;;17.90;37.10;;;;;;5061618;28;20418;-58
2022/04/05 00:52:37;;;;;;;1.20;1.10;;;17.90;37.10;;;;;;5063953;28;21050;-59
2022/04/05 00:55:04;;;;;;;1.07;0.97;;;17.90;37.10;;;;;;5060226;28;20541;-58
2022/04/05 00:57:31;;;;;;;1.50;1.40;;;17.90;37.10;;;;;;5059191;28;20217;-58
2022/04/05 01:00:00;;;;;;;1.13;1.03;;;17.90;37.80;;;;;;5057578;28;22351;-57
2022/04/05 01:02:28;;;;;;;1.20;1.10;;;17.90;37.20;;;;;;5059758;28;20436;-58
2022/04/05 01:04:54;;;;;;;1.03;0.93;;;17.90;37.10;;;;;;5057765;28;20826;-59
2022/04/05 01:07:22;;;;;;;3.00;0.97;;;17.90;37.20;;;;;;5060444;28;20434;-57
2022/04/05 01:09:53;;;;;;;1.10;1.00;;;17.80;37.10;;;;;;5063324;28;20895;-60
2022/04/05 01:12:20;;;;;;;1.20;1.10;;;17.90;37.20;;;;;;5058853;28;20429;-58
2022/04/05 01:14:45;;;;;;;1.17;1.07;;;17.90;37.30;;;;;;5060015;28;20455;-58
2022/04/05 01:17:11;;;;;;;1.20;1.10;;;17.90;37.30;;;;;;5058704;28;20437;-57
2022/04/05 01:19:38;;;;;;;1.00;0.90;;;17.80;37.20;;;;;;5056584;28;20316;-58
2022/04/05 01:22:03;;;;;;;1.20;1.10;;;17.90;37.30;;;;;;5059841;28;20458;-58
2022/04/05 01:24:29;;;;;;;1.00;0.90;;;17.90;37.30;;;;;;5053472;28;20418;-58
2022/04/05 01:26:57;;;;;;;1.00;0.90;;;17.90;37.30;;;;;;5061642;28;20317;-57
2022/04/05 01:29:26;;;;;;;1.20;1.10;;;17.80;37.20;;;;;;5063625;28;20638;-58
2022/04/05 01:31:54;;;;;;;1.20;1.10;;;17.80;37.20;;;;;;5057230;28;20555;-57
2022/04/05 01:34:23;;;;;;;1.10;1.00;;;17.80;37.20;;;;;;5065807;28;20446;-58
2022/04/05 01:36:51;;;;;;;1.10;1.00;;;17.80;37.30;;;;;;5063252;28;20472;-58
2022/04/05 01:39:19;;;;;;;0.90;0.90;;;17.80;37.30;;;;;;5064793;28;20422;-58
2022/04/05 01:41:45;;;;;;;1.00;0.90;;;17.80;37.20;;;;;;5062641;28;20529;-58
2022/04/05 01:44:12;;;;;;;1.23;1.13;;;17.80;37.30;;;;;;5064812;28;20430;-57
2022/04/05 01:46:38;;;;;;;0.97;0.90;;;17.80;37.30;;;;;;5061649;28;20308;-57
2022/04/05 01:49:09;;;;;;;1.10;1.00;;;17.90;37.40;;;;;;5069635;28;20510;-59
2022/04/05 01:51:37;;;;;;;1.00;0.93;;;17.80;37.30;;;;;;5064739;28;20222;-57
2022/04/05 01:54:06;;;;;;;0.93;0.83;;;17.80;37.30;;;;;;5063493;28;20451;-58
2022/04/05 01:56:41;;;;;;;1.20;1.10;;;17.80;37.30;;;;;;5064807;28;20896;-59
2022/04/05 01:59:07;;;;;;;1.00;0.90;;;17.90;37.40;;;;;;5064447;28;20450;-59
2022/04/05 02:01:33;;;;;;;0.80;0.80;;;17.80;37.30;;;;;;5059348;28;20478;-59
2022/04/05 02:03:58;;;;;;;1.00;0.90;;;17.80;37.30;;;;;;5064427;28;20223;-60
2022/04/05 02:06:31;;;;;;;1.03;0.90;;;17.80;37.30;;;;;;5066105;28;20698;-57
2022/04/05 02:08:57;;;;;;;1.20;1.00;;;17.80;37.30;;;;;;5068469;28;20237;-57
2022/04/05 02:11:25;;;;;;;0.80;0.80;;;17.80;37.30;;;;;;5061345;28;20472;-58
2022/04/05 02:13:50;;;;;;;1.27;1.17;;;17.80;37.30;;;;;;5063017;28;20250;-57
2022/04/05 02:16:16;;;;;;;1.10;1.00;;;17.90;37.40;;;;;;5060680;28;20473;-58
2022/04/05 02:18:42;;;;;;;0.80;0.80;;;17.80;37.30;;;;;;5061478;28;20592;-58
2022/04/05 02:21:07;;;;;;;1.10;1.00;;;17.90;37.40;;;;;;5064454;28;20579;-60
2022/04/05 02:23:33;;;;;;;0.80;0.80;;;17.90;37.40;;;;;;5059766;28;20229;-58
2022/04/05 02:25:59;;;;;;;0.80;0.80;;;17.80;37.30;;;;;;5066347;28;20225;-58
2022/04/05 02:28:25;;;;;;;0.80;0.80;;;17.80;37.30;;;;;;5064725;28;20210;-57
2022/04/05 02:30:51;;;;;;;0.80;0.80;;;17.90;37.40;;;;;;5064809;28;20225;-57
2022/04/05 02:33:17;;;;;;;0.90;0.70;;;17.80;37.30;;;;;;5061670;28;20857;-59
2022/04/05 02:35:43;;;;;;;1.50;0.90;;;17.90;37.40;;;;;;5065732;28;20417;-58
2022/04/05 02:38:09;;;;;;;1.00;0.90;;;17.80;37.30;;;;;;5059807;28;20701;-58
2022/04/05 02:40:35;;;;;;;1.20;1.10;;;17.80;37.30;;;;;;5061425;28;20226;-57
2022/04/05 02:43:02;;;;;;;1.00;0.90;;;17.90;37.40;;;;;;5066477;28;20995;-58
2022/04/05 02:45:27;;;;;;;1.00;0.90;;;17.90;37.40;;;;;;5064548;28;20280;-58
2022/04/05 02:47:53;;;;;;;1.10;1.00;;;17.80;37.30;;;;;;5062844;28;20429;-58
2022/04/05 02:50:18;;;;;;;0.80;0.80;;;17.90;37.40;;;;;;5062231;28;20218;-58
2022/04/05 02:52:48;;;;;;;0.97;0.87;;;17.90;37.40;;;;;;5060143;28;20677;-60
2022/04/05 02:55:16;;;;;;;1.70;0.80;;;17.80;37.30;;;;;;5057857;28;20222;-57
2022/04/05 02:57:42;;;;;;;1.10;1.00;;;17.80;37.30;;;;;;5063147;28;20455;-57
2022/04/05 03:00:11;;;;;;;1.20;1.00;;;17.80;37.30;;;;;;5064218;28;20433;-58
2022/04/05 03:02:37;;;;;;;1.00;0.90;;;17.80;37.30;;;;;;5062473;28;20480;-59
2022/04/05 03:05:05;;;;;;;0.97;0.83;;;17.80;37.30;;;;;;5064796;28;20468;-58
2022/04/05 03:07:30;;;;;;;1.13;0.87;;;17.80;37.30;;;;;;5061390;28;20868;-58
2022/04/05 03:09:56;;;;;;;0.90;0.80;;;17.80;37.30;;;;;;5058746;28;20487;-58
2022/04/05 03:12:22;;;;;;;0.80;0.80;;;17.80;37.30;;;;;;5060064;28;20210;-58
2022/04/05 03:14:47;;;;;;;1.07;0.83;;;17.80;37.30;;;;;;5061952;28;20305;-58
2022/04/05 03:17:13;;;;;;;0.80;0.80;;;17.80;37.30;;;;;;5059957;28;20305;-58
2022/04/05 03:19:39;;;;;;;0.93;0.90;;;17.80;37.30;;;;;;5060410;28;20621;-58
2022/04/05 03:22:09;;;;;;;0.80;0.80;;;17.80;37.30;;;;;;5062505;28;20233;-60
2022/04/05 03:24:35;;;;;;;0.80;0.80;;;17.80;37.30;;;;;;5060565;28;20771;-58
2022/04/05 03:27:00;;;;;;;1.20;0.80;;;17.80;37.30;;;;;;5063593;28;20563;-58
2022/04/05 03:29:26;;;;;;;0.80;0.70;;;17.80;37.30;;;;;;5064237;28;20862;-57
2022/04/05 03:31:52;;;;;;;0.80;0.80;;;17.80;37.30;;;;;;5061545;28;20326;-59
2022/04/05 03:34:17;;;;;;;0.80;0.80;;;17.80;37.30;;;;;;5064223;28;20313;-58
2022/04/05 03:36:46;;;;;;;0.90;0.80;;;17.80;37.30;;;;;;5065082;28;20648;-58
2022/04/05 03:39:13;;;;;;;1.00;0.80;;;17.80;37.30;;;;;;5058783;28;20222;-58
2022/04/05 03:41:40;;;;;;;0.80;0.80;;;17.80;37.30;;;;;;5066428;28;20447;-58
2022/04/05 03:44:06;;;;;;;1.00;0.90;;;17.80;37.30;;;;;;5062780;28;20425;-57
2022/04/05 03:46:32;;;;;;;0.77;0.70;;;17.80;37.30;;;;;;5059337;28;20434;-58
2022/04/05 03:48:58;;;;;;;0.80;0.73;;;17.80;37.30;;;;;;5063049;28;20509;-59
2022/04/05 03:51:23;;;;;;;1.90;0.83;;;17.80;37.30;;;;;;5060869;28;20656;-57
2022/04/05 03:53:49;;;;;;;1.00;0.90;;;17.80;37.30;;;;;;5055596;28;20429;-59
2022/04/05 03:56:14;;;;;;;0.80;0.70;;;17.80;37.30;;;;;;5061088;28;20679;-58
2022/04/05 03:58:40;;;;;;;0.80;0.70;;;17.80;37.30;;;;;;5056929;28;20225;-58
2022/04/05 04:01:06;;;;;;;0.70;0.70;;;17.80;37.30;;;;;;5062637;28;20226;-58
2022/04/05 04:03:33;;;;;;;0.80;0.80;;;17.80;37.30;;;;;;5061593;28;20635;-59
2022/04/05 04:05:59;;;;;;;0.80;0.80;;;17.80;37.30;;;;;;5063165;28;20864;-58
2022/04/05 04:08:25;;;;;;;0.70;0.70;;;17.80;37.30;;;;;;5058721;28;20430;-58
2022/04/05 04:10:51;;;;;;;0.80;0.80;;;17.80;37.30;;;;;;5061871;28;20821;-59
2022/04/05 04:13:17;;;;;;;0.80;0.80;;;17.80;37.30;;;;;;5060736;28;20421;-58
2022/04/05 04:15:43;;;;;;;0.90;0.90;;;17.80;37.30;;;;;;5059098;28;20453;-59
2022/04/05 04:18:08;;;;;;;0.83;0.83;;;17.80;37.30;;;;;;5063520;28;20240;-58
2022/04/05 04:20:34;;;;;;;0.70;0.70;;;17.80;38.00;;;;;;5065866;28;20241;-58
2022/04/05 04:22:59;;;;;;;1.00;0.90;;;17.80;37.30;;;;;;5062742;28;20234;-57
2022/04/05 04:25:25;;;;;;;0.80;0.80;;;17.80;37.30;;;;;;5059432;28;20571;-58
2022/04/05 04:27:51;;;;;;;0.80;0.80;;;17.80;37.30;;;;;;5063523;28;20684;-58
2022/04/05 04:30:16;;;;;;;0.90;0.90;;;17.80;37.30;;;;;;5059000;28;20251;-58
2022/04/05 04:32:42;;;;;;;0.80;0.80;;;17.80;37.30;;;;;;5062842;28;20908;-58
2022/04/05 04:35:08;;;;;;;0.90;0.80;;;17.80;37.30;;;;;;5061301;28;20236;-58
2022/04/05 04:37:34;;;;;;;0.80;0.80;;;17.80;37.30;;;;;;5057137;28;20679;-57
2022/04/05 04:40:00;;;;;;;0.80;0.70;;;17.80;37.30;;;;;;5059981;28;20422;-57
2022/04/05 04:42:26;;;;;;;1.10;1.00;;;17.80;37.30;;;;;;5062765;28;20456;-57
2022/04/05 04:44:51;;;;;;;0.83;0.83;;;17.80;37.30;;;;;;5060004;28;20222;-58
2022/04/05 04:47:17;;;;;;;1.00;0.87;;;17.80;37.30;;;;;;5059743;28;20237;-58
2022/04/05 04:49:43;;;;;;;0.90;0.87;;;17.90;37.40;;;;;;5062356;28;20638;-57
2022/04/05 04:52:10;;;;;;;0.80;0.80;;;17.90;37.40;;;;;;5057417;28;20230;-58
2022/04/05 04:54:36;;;;;;;1.30;1.20;;;17.90;37.40;;;;;;5062522;28;20443;-57
2022/04/05 04:57:02;;;;;;;0.80;0.80;;;18.00;37.50;;;;;;5063888;28;20532;-58
2022/04/05 04:59:27;;;;;;;1.57;0.80;;;18.00;37.50;;;;;;5061473;28;21002;-59
2022/04/05 05:01:53;;;;;;;1.13;0.70;;;18.00;37.50;;;;;;5059354;28;20221;-57
2022/04/05 05:04:19;;;;;;;1.00;0.90;;;18.00;37.50;;;;;;5062532;28;20211;-57
2022/04/05 05:06:44;;;;;;;0.97;0.80;;;18.00;37.50;;;;;;5058385;28;20256;-58
2022/04/05 05:09:10;;;;;;;1.67;1.00;;;18.00;37.50;;;;;;5058121;28;20588;-58
2022/04/05 05:11:36;;;;;;;0.80;0.80;;;18.00;37.50;;;;;;5065173;28;20218;-58
2022/04/05 05:14:02;;;;;;;1.30;1.17;;;18.00;37.50;;;;;;5063830;28;20466;-57
2022/04/05 05:16:28;;;;;;;1.27;0.80;;;18.00;37.50;;;;;;5064081;28;20249;-58
2022/04/05 05:18:54;;;;;;;1.30;0.93;;;18.00;37.50;;;;;;5062467;28;20936;-59
2022/04/05 05:21:20;;;;;;;1.00;0.90;;;18.00;37.50;;;;;;5062737;28;20221;-58
2022/04/05 05:23:46;;;;;;;1.00;0.83;;;18.00;37.50;;;;;;5059959;28;20773;-58
2022/04/05 05:26:12;;;;;;;1.00;0.90;;;18.00;37.50;;;;;;5061975;28;20248;-60
2022/04/05 05:28:37;;;;;;;1.10;1.00;;;18.00;37.50;;;;;;5060419;28;20221;-59
2022/04/05 05:31:03;;;;;;;1.53;0.90;;;18.00;37.50;;;;;;5057429;28;20622;-61
2022/04/05 05:33:31;;;;;;;2.70;1.13;;;18.00;37.50;;;;;;5061538;28;20600;-59
2022/04/05 05:35:56;;;;;;;1.07;0.90;;;18.00;37.50;;;;;;5034777;28;21308;-67
2022/04/05 05:38:22;;;;;;;1.03;0.93;;;18.00;37.50;;;;;;4991602;28;20433;-67
2022/04/05 05:40:48;;;;;;;1.13;1.03;;;18.00;37.50;;;;;;5024873;28;20847;-65
2022/04/05 05:43:13;;;;;;;1.00;0.90;;;18.00;37.50;;;;;;4997688;28;20229;-65
2022/04/05 05:45:39;;;;;;;1.90;1.07;;;18.00;37.60;;;;;;5031980;28;20579;-58
2022/04/05 05:48:06;;;;;;;1.73;0.80;;;18.00;37.50;;;;;;5059092;28;20234;-58
2022/04/05 05:50:32;;;;;;;1.00;0.87;;;18.00;37.50;;;;;;5055743;28;20237;-60
2022/04/05 05:52:59;;;;;;;1.10;1.00;;;18.00;37.50;;;;;;5054195;28;20442;-59
2022/04/05 05:55:25;;;;;;;1.40;1.30;;;18.00;37.50;;;;;;5062648;28;20418;-58
2022/04/05 05:57:51;;;;;;;1.00;0.90;;;18.00;37.50;;;;;;5061003;28;20483;-59
2022/04/05 06:00:21;;;;;;;1.13;0.90;;;18.00;37.50;;;;;;5057574;28;20434;-59
2022/04/05 06:02:58;;;;;;;1.20;0.90;;;18.00;37.50;;;;;;5061420;28;20245;-59
2022/04/05 06:05:24;;;;;;;1.10;1.00;;;18.00;37.50;;;;;;5057836;28;21031;-58
2022/04/05 06:07:49;;;;;;;2.13;1.10;;;18.00;37.50;;;;;;5056180;28;20518;-58
2022/04/05 06:10:15;;;;;;;3.17;1.07;;;18.00;37.50;;;;;;5059090;28;20532;-58
2022/04/05 06:12:43;;;;;;;2.17;1.20;;;18.00;37.50;;;;;;5060541;28;20263;-58
2022/04/05 06:15:12;;;;;;;1.80;0.80;;;18.00;37.50;;;;;;5061886;28;20210;-59
2022/04/05 06:17:41;;;;;;;1.27;1.17;;;18.00;37.50;;;;;;5058098;28;20463;-57
2022/04/05 06:20:07;;;;;;;2.10;1.90;;;18.00;37.50;;;;;;5063051;28;21333;-60
2022/04/05 06:22:52;;;;;;;1.23;1.10;;;18.00;37.50;;;;;;5059489;28;20513;-58
2022/04/05 06:25:20;;;;;;;1.20;1.10;;;18.00;37.50;;;;;;5063897;28;20962;-61
2022/04/05 06:27:46;;;;;;;1.70;1.10;;;18.00;37.50;;;;;;5064126;28;20443;-57
2022/04/05 06:30:13;;;;;;;1.57;1.00;;;18.00;37.50;;;;;;5063408;28;20860;-58
2022/04/05 06:32:39;;;;;;;1.50;1.40;;;18.00;37.50;;;;;;5065663;28;20288;-59
2022/04/05 06:35:07;;;;;;;1.00;0.90;;;18.00;37.50;;;;;;5069709;28;20813;-58
2022/04/05 06:37:33;;;;;;;1.20;1.10;;;18.00;37.50;;;;;;5060816;28;20455;-58
2022/04/05 06:39:59;;;;;;;0.97;0.80;;;18.00;37.50;;;;;;5064554;28;20766;-58
2022/04/05 06:42:25;;;;;;;1.67;0.90;;;18.00;37.50;;;;;;5063499;28;20486;-59
2022/04/05 06:44:52;;;;;;;0.90;0.90;;;18.00;37.50;;;;;;5056912;28;20211;-60
2022/04/05 06:47:18;;;;;;;1.87;1.00;;;18.00;37.50;;;;;;5062947;28;20463;-57
2022/04/05 06:49:43;;;;;;;1.10;1.00;;;18.00;37.50;;;;;;5062138;28;20449;-58
2022/04/05 06:52:09;;;;;;;0.80;0.80;;;18.00;37.50;;;;;;5066631;28;20250;-58
2022/04/05 06:54:35;;;;;;;2.70;1.23;;;18.00;37.50;;;;;;5063797;28;20260;-58
2022/04/05 06:57:00;;;;;;;1.83;1.10;;;18.00;37.50;;;;;;5063178;28;20236;-57
2022/04/05 06:59:26;;;;;;;1.10;1.00;;;18.00;37.50;;;;;;5062521;28;20234;-59
2022/04/05 07:01:52;;;;;;;1.10;0.90;;;18.00;37.50;;;;;;5060652;28;20225;-57
2022/04/05 07:04:17;;;;;;;0.97;0.90;;;18.00;37.50;;;;;;5064611;28;20226;-60
2022/04/05 07:06:43;;;;;;;1.00;0.90;;;18.00;37.50;;;;;;5059296;28;20591;-58
2022/04/05 07:09:09;;;;;;;1.00;0.90;;;18.00;37.50;;;;;;5059979;28;20229;-58
2022/04/05 07:11:35;;;;;;;2.53;1.00;;;18.00;37.50;;;;;;5067021;28;20222;-58
2022/04/05 07:14:00;;;;;;;1.03;0.97;;;18.00;37.50;;;;;;5059948;28;20442;-58
2022/04/05 07:16:26;;;;;;;2.53;0.90;;;18.00;37.50;;;;;;5061067;28;20683;-61
2022/04/05 07:18:51;;;;;;;0.90;0.80;;;18.00;37.50;;;;;;5064288;28;20222;-58
2022/04/05 07:21:20;;;;;;;1.10;1.00;;;18.00;37.50;;;;;;5058788;28;20249;-58
2022/04/05 07:23:47;;;;;;;3.20;0.97;;;18.00;37.50;;;;;;5059955;28;20243;-60
2022/04/05 07:26:13;;;;;;;1.07;0.97;;;18.00;37.50;;;;;;5063985;28;20439;-59
2022/04/05 07:28:38;;;;;;;1.20;1.10;;;18.00;37.50;;;;;;5061571;28;20441;-58
2022/04/05 07:31:04;;;;;;;0.90;0.80;;;18.00;37.50;;;;;;5063150;28;20429;-62
2022/04/05 07:33:30;;;;;;;0.80;0.80;;;18.00;37.50;;;;;;5060759;28;20260;-58
2022/04/05 07:35:56;;;;;;;0.90;0.90;;;18.00;37.50;;;;;;5065496;28;20849;-57
2022/04/05 07:38:22;;;;;;;1.10;1.00;;;18.00;37.50;;;;;;5059333;28;20227;-58
2022/04/05 07:40:47;;;;;;;0.97;0.90;;;18.00;37.50;;;;;;5062727;28;20780;-58
2022/04/05 07:43:18;;;;;;;0.97;0.87;;;18.00;37.50;;;;;;5064892;28;20433;-58
2022/04/05 07:45:45;;;;;;;1.00;0.90;;;18.00;37.50;;;;;;5064053;28;20575;-58
2022/04/05 07:48:11;;;;;;;0.97;0.87;;;18.00;37.50;;;;;;5061747;28;20500;-57
2022/04/05 07:50:37;;;;;;;1.10;1.00;;;18.00;37.50;;;;;;5064933;28;20451;-58
2022/04/05 07:53:03;;;;;;;0.97;0.87;;;18.00;37.50;;;;;;5063667;28;20237;-58
2022/04/05 07:55:28;;;;;;;0.93;0.80;;;18.00;37.50;;;;;;5063164;28;20260;-57
2022/04/05 07:57:54;;;;;;;1.93;1.00;;;18.00;37.50;;;;;;5061340;28;20222;-58
2022/04/05 08:00:22;;;;;;;1.00;0.90;;;18.00;37.50;;;;;;5058571;28;20617;-57
2022/04/05 08:02:47;;;;;;;1.30;1.20;;;18.00;37.50;;;;;;5064540;28;20233;-59
2022/04/05 08:05:13;;;;;;;1.00;0.90;;;18.00;37.50;;;;;;5062996;28;20450;-58
2022/04/05 08:07:39;;;;;;;1.90;1.10;;;18.00;37.50;;;;;;5061783;28;20234;-58
2022/04/05 08:10:05;;;;;;;0.87;0.87;;;18.00;37.50;;;;;;5061740;28;20714;-58
2022/04/05 08:12:45;;;;;;;0.87;0.83;;;18.00;37.50;;;;;;5063770;28;20635;-57
2022/04/05 08:15:19;;;;;;;1.10;1.00;;;18.00;37.50;;;;;;5061288;28;20454;-58
2022/04/05 08:17:46;;;;;;;1.43;0.90;;;18.00;37.50;;;;;;5060708;28;20432;-58
2022/04/05 08:20:13;;;;;;;1.10;1.00;;;18.00;37.50;;;;;;5061430;28;20544;-60
2022/04/05 08:22:39;;;;;;;1.10;1.00;;;18.00;37.50;;;;;;5057962;28;20445;-58
2022/04/05 08:25:07;;;;;;;0.90;0.90;;;18.00;37.50;;;;;;5059896;28;20426;-59
2022/04/05 08:27:33;;;;;;;1.30;0.80;;;18.00;37.50;;;;;;5061314;28;20520;-60
2022/04/05 08:29:59;;;;;;;0.90;0.90;;;18.00;37.50;;;;;;5058342;28;20410;-57
2022/04/05 08:32:26;;;;;;;1.73;0.90;;;18.00;37.50;;;;;;5064109;28;20425;-57
2022/04/05 08:34:52;;;;;;;1.00;0.90;;;18.00;37.50;;;;;;5064498;28;20863;-57
2022/04/05 08:37:17;;;;;;;0.90;0.90;;;18.00;37.50;;;;;;5059917;28;20470;-58
2022/04/05 08:39:43;;;;;;;0.90;0.90;;;18.00;37.50;;;;;;5062824;28;20220;-58
2022/04/05 08:42:09;;;;;;;0.80;0.80;;;18.00;37.50;;;;;;5063883;28;20777;-58
2022/04/05 08:44:35;;;;;;;1.00;0.90;;;18.00;37.50;;;;;;5057443;28;20293;-59
2022/04/05 08:47:03;;;;;;;0.90;0.90;;;18.00;37.50;;;;;;5062479;28;20529;-58
2022/04/05 08:49:29;;;;;;;1.27;1.17;;;18.00;37.50;;;;;;5064255;28;20228;-58
2022/04/05 08:51:55;;;;;;;0.77;0.77;;;18.00;37.50;;;;;;5061101;28;20441;-60
2022/04/05 08:54:22;;;;;;;1.10;1.00;;;18.00;37.50;;;;;;5057424;28;20487;-57
2022/04/05 08:56:47;;;;;;;1.47;1.10;;;18.00;37.50;;;;;;5061863;28;20279;-60
2022/04/05 08:59:14;;;;;;;1.40;0.90;;;18.00;37.50;;;;;;5055819;28;20908;-59
2022/04/05 09:01:40;;;;;;;1.10;1.00;;;18.00;37.60;;;;;;5059421;28;20259;-59
2022/04/05 09:04:06;;;;;;;0.90;0.90;;;18.00;37.50;;;;;;5062535;28;20440;-59
2022/04/05 09:06:34;;;;;;;1.10;1.00;;;18.00;37.50;;;;;;5060663;28;20470;-59
2022/04/05 09:09:09;;;;;;;1.30;1.20;;;18.00;37.50;;;;;;5059715;28;20229;-58
2022/04/05 09:11:36;;;;;;;0.90;0.90;;;18.00;37.50;;;;;;5062747;28;20436;-58
2022/04/05 09:14:03;;;;;;;1.00;0.90;;;18.00;37.50;;;;;;5057091;28;20456;-60
2022/04/05 09:16:32;;;;;;;0.90;0.90;;;18.00;37.50;;;;;;5057370;28;20418;-58
2022/04/05 09:19:12;;;;;;;0.90;0.80;;;18.00;37.50;;;;;;5063111;28;20499;-61
2022/04/05 09:21:53;;;;;;;0.97;0.90;;;18.00;37.50;;;;;;5053372;28;20423;-59
2022/04/05 09:24:19;;;;;;;0.80;0.80;;;18.00;37.50;;;;;;5060139;28;20441;-58
2022/04/05 09:26:45;;;;;;;1.00;0.90;;;18.00;37.50;;;;;;5060391;28;20528;-59
2022/04/05 09:29:11;;;;;;;0.90;0.90;;;18.00;37.50;;;;;;5058790;28;20816;-58
2022/04/05 09:31:45;;;;;;;1.07;1.00;;;18.00;37.50;;;;;;5061373;28;21255;-58
2022/04/05 09:34:19;;;;;;;0.87;0.87;;;18.00;37.50;;;;;;5064783;28;20478;-57
2022/04/05 09:36:50;;;;;;;1.17;1.07;;;18.00;37.50;;;;;;5058086;28;20437;-59
2022/04/05 09:39:17;;;;;;;1.00;0.83;;;18.00;37.50;;;;;;5060958;28;20504;-58
2022/04/05 09:41:48;;;;;;;1.10;1.00;;;18.00;37.50;;;;;;5061049;28;20428;-58
2022/04/05 09:44:26;;;;;;;1.00;0.90;;;18.00;37.50;;;;;;5062901;28;20813;-59
2022/04/05 09:47:17;;;;;;;0.83;0.83;;;18.00;37.50;;;;;;5063330;28;20465;-58
2022/04/05 09:49:46;;;;;;;1.10;1.00;;;17.90;37.40;;;;;;5057317;28;20429;-58
2022/04/05 09:52:26;;;;;;;1.00;0.90;;;17.90;37.40;;;;;;5060006;28;20952;-60
2022/04/05 09:54:52;;;;;;;1.10;1.00;;;18.00;37.50;;;;;;5063173;28;20461;-58
2022/04/05 09:57:32;;;;;;;0.90;0.90;;;17.90;37.40;;;;;;5066255;28;20449;-58
2022/04/05 10:00:11;;;;;;;1.10;1.00;;;18.00;37.50;;;;;;5064554;28;20425;-59
2022/04/05 10:02:36;;;;;;;1.00;1.00;;;17.90;37.40;;;;;;5064326;28;20470;-58
2022/04/05 10:05:09;;;;;;;1.00;0.90;;;17.90;37.50;;;;;;5064401;28;21006;-59
2022/04/05 10:07:35;;;;;;;1.20;1.10;;;17.90;37.40;;;;;;5065109;28;20241;-58
2022/04/05 10:10:06;;;;;;;0.90;0.90;;;17.90;37.40;;;;;;5065352;28;20477;-60
2022/04/05 10:12:32;;;;;;;1.07;0.97;;;17.90;37.40;;;;;;5064448;28;20446;-58
2022/04/05 10:14:59;;;;;;;1.20;1.10;;;17.90;37.40;;;;;;5064406;28;20839;-60
2022/04/05 10:17:26;;;;;;;1.20;1.10;;;17.90;37.40;;;;;;5067702;28;20237;-57
2022/04/05 10:19:54;;;;;;;1.30;1.20;;;17.90;37.40;;;;;;5061198;28;20544;-58
2022/04/05 10:22:22;;;;;;;1.10;1.10;;;17.90;37.40;;;;;;5067766;28;20427;-58
2022/04/05 10:24:52;;;;;;;1.57;1.10;;;17.90;37.40;;;;;;5065880;28;20971;-58
2022/04/05 10:27:22;;;;;;;1.00;0.90;;;17.90;37.40;;;;;;5063255;28;20544;-58
2022/04/05 10:30:07;;;;;;;1.10;1.10;;;17.90;37.40;;;;;;5065878;28;21052;-58
2022/04/05 10:32:46;;;;;;;1.00;1.00;;;17.90;37.50;;;;;;5066209;28;20779;-58
2022/04/05 10:35:14;;;;;;;1.07;1.00;;;17.90;37.40;;;;;;5056945;28;20484;-57
2022/04/05 10:37:40;;;;;;;1.20;1.10;;;17.90;37.40;;;;;;5066921;28;20450;-58
2022/04/05 10:40:07;;;;;;;1.30;1.20;;;17.90;37.40;;;;;;5062358;28;20433;-57
2022/04/05 10:42:40;;;;;;;0.90;0.90;;;17.90;37.40;;;;;;5061764;28;20433;-60
2022/04/05 10:45:18;;;;;;;1.30;1.20;;;17.90;37.40;;;;;;5067469;28;20988;-57
2022/04/05 10:48:12;;;;;;;1.50;1.00;;;17.90;37.40;;;;;;5060621;28;20793;-58
2022/04/05 10:50:40;;;;;;;1.17;1.17;;;17.90;37.40;;;;;;5055961;28;20951;-59
2022/04/05 10:53:14;;;;;;;1.20;1.10;;;17.90;37.40;;;;;;5066733;28;20481;-58
2022/04/05 10:56:11;;;;;;;1.20;1.10;;;17.90;37.40;;;;;;5058803;28;21552;-58
2022/04/05 10:58:51;;;;;;;1.10;1.00;;;17.90;37.40;;;;;;5060539;28;20948;-57
2022/04/05 11:01:18;;;;;;;1.17;1.07;;;17.90;37.40;;;;;;5067940;28;20566;-58
2022/04/05 11:04:16;;;;;;;1.00;1.00;;;17.90;37.40;;;;;;5064938;28;20418;-58
2022/04/05 11:07:03;;;;;;;1.10;1.00;;;17.90;37.40;;;;;;5060023;28;20964;-58
2022/04/05 11:09:30;;;;;;;3.37;1.20;;;17.90;37.40;;;;;;5063050;28;20432;-58
2022/04/05 11:11:56;;;;;;;1.23;1.13;;;17.90;37.40;;;;;;5061795;28;20867;-59
2022/04/05 11:14:45;;;;;;;1.20;1.10;;;17.90;37.40;;;;;;5059529;28;20443;-59
2022/04/05 11:17:14;;;;;;;1.20;1.10;;;17.90;37.40;;;;;;5061495;28;20229;-57
2022/04/05 11:19:43;;;;;;;1.27;1.17;;;17.90;37.40;;;;;;5062544;28;20490;-58
2022/04/05 11:22:20;;;;;;;1.30;1.20;;;17.90;37.40;;;;;;5065735;28;21001;-57
2022/04/05 11:25:00;;;;;;;1.30;1.20;;;17.90;37.40;;;;;;5063239;28;20425;-57
2022/04/05 11:27:28;;;;;;;1.33;1.23;;;17.90;37.40;;;;;;5056524;28;20542;-57
2022/04/05 11:30:28;;;;;;;1.30;1.20;;;17.90;37.40;;;;;;5065427;28;20835;-57
2022/04/05 11:33:14;;;;;;;1.20;1.10;;;17.90;37.40;;;;;;5061483;28;20478;-58
2022/04/05 11:35:45;;;;;;;1.27;1.17;;;17.90;37.40;;;;;;5062430;28;20420;-57
2022/04/05 11:38:19;;;;;;;1.27;1.17;;;17.90;37.40;;;;;;5064163;28;20439;-60
2022/04/05 11:40:50;;;;;;;1.63;1.10;;;17.90;37.40;;;;;;5063793;28;20416;-60
2022/04/05 11:43:24;;;;;;;1.30;1.20;;;17.90;37.40;;;;;;5059903;28;20556;-58
2022/04/05 11:45:53;;;;;;;1.27;1.17;;;17.90;37.40;;;;;;5064070;28;20930;-57
2022/04/05 11:48:21;;;;;;;1.20;1.10;;;17.90;37.40;;;;;;5061183;28;20436;-57
2022/04/05 11:50:50;;;;;;;1.33;1.23;;;17.90;37.40;;;;;;5057566;28;20922;-59
2022/04/05 11:53:19;;;;;;;1.00;1.00;;;17.90;37.50;;;;;;5065467;28;20451;-58
2022/04/05 11:56:03;;;;;;;1.20;1.10;;;17.90;37.40;;;;;;5056243;28;20447;-58
2022/04/05 11:58:30;;;;;;;1.40;1.30;;;17.80;37.30;;;;;;5064084;28;20422;-58
2022/04/05 12:00:57;;;;;;;1.17;1.07;;;17.80;37.30;;;;;;5058362;28;20482;-57
2022/04/05 12:03:23;;;;;;;1.20;1.10;;;17.90;37.40;;;;;;5064115;28;20425;-59
2022/04/05 12:05:49;;;;;;;1.43;1.33;;;17.80;37.30;;;;;;5057237;28;20465;-59
2022/04/05 12:08:16;;;;;;;1.27;1.20;;;17.90;37.40;;;;;;5065006;28;20470;-58
2022/04/05 12:10:43;;;;;;;1.00;1.00;;;17.90;37.40;;;;;;5061393;28;20249;-59
2022/04/05 12:13:09;;;;;;;1.53;1.43;;;17.90;37.40;;;;;;5060463;28;20447;-58
2022/04/05 12:15:37;;;;;;;1.20;1.10;;;17.90;37.40;;;;;;5063897;28;20424;-59
2022/04/05 12:18:20;;;;;;;1.37;1.27;;;17.90;37.40;;;;;;5068265;28;20232;-58
2022/04/05 12:21:02;;;;;;;1.50;1.40;;;17.90;38.10;;;;;;5062219;28;20499;-59
2022/04/05 12:23:33;;;;;;;1.20;1.10;;;17.90;37.40;;;;;;5063392;28;20425;-58
2022/04/05 12:26:08;;;;;;;1.40;1.30;;;17.90;37.40;;;;;;5061511;28;20445;-58
2022/04/05 12:28:54;;;;;;;1.50;1.40;;;17.90;37.50;;;;;;5059088;28;20454;-61
2022/04/05 12:31:22;;;;;;;1.50;1.40;;;17.90;37.50;;;;;;5063383;28;20475;-58
2022/04/05 12:34:00;;;;;;;1.30;1.20;;;17.90;37.40;;;;;;5057920;28;20530;-60
2022/04/05 12:36:33;;;;;;;1.30;1.07;;;17.90;37.50;;;;;;5059800;28;20450;-58
2022/04/05 12:39:00;;;;;;;1.40;1.30;;;17.80;37.50;;;;;;5064667;28;20824;-58
2022/04/05 12:41:27;;;;;;;1.30;1.20;;;17.80;37.40;;;;;;5058002;28;20436;-58
2022/04/05 12:44:13;;;;;;;1.23;1.20;;;17.90;37.60;;;;;;5057871;28;20430;-57
2022/04/05 12:46:43;;;;;;;1.40;1.30;;;17.80;37.50;;;;;;5063508;28;20445;-57
2022/04/05 12:49:30;;;;;;;1.10;1.10;;;17.90;37.60;;;;;;5064982;28;20849;-60
2022/04/05 12:52:26;;;;;;;1.20;1.10;;;17.90;37.60;;;;;;5062272;28;20460;-60
2022/04/05 12:55:14;;;;;;;1.30;1.20;;;17.80;37.50;;;;;;5062327;28;20429;-60